createdAt,value
2019-05-09T00:00:01.096Z,20.84
2019-05-09T00:01:10.864Z,20.79
2019-05-09T00:02:24.164Z,20.77
2019-05-09T00:03:36.028Z,20.79
2019-05-09T00:04:46.473Z,20.74
2019-05-09T00:05:59.057Z,20.76
2019-05-09T00:07:09.642Z,20.84
2019-05-09T00:08:23.057Z,20.79
2019-05-09T00:09:33.538Z,20.76
2019-05-09T00:10:47.417Z,20.77
2019-05-09T00:11:58.226Z,20.8
2019-05-09T00:13:08.541Z,20.8
2019-05-09T00:14:18.555Z,20.8
2019-05-09T00:15:28.576Z,20.77
2019-05-09T00:16:40.029Z,20.85
2019-05-09T00:17:53.050Z,20.79
2019-05-09T00:19:03.228Z,20.79
2019-05-09T00:20:13.592Z,20.85
2019-05-09T00:21:23.882Z,20.84
2019-05-09T00:22:35.702Z,20.8
2019-05-09T00:23:46.212Z,20.8
2019-05-09T00:24:56.429Z,20.79
2019-05-09T00:26:08.743Z,20.77
2019-05-09T00:27:22.949Z,20.79
2019-05-09T00:28:37.745Z,20.8
2019-05-09T00:29:48.784Z,20.77
2019-05-09T00:31:00.517Z,20.79
2019-05-09T00:32:10.573Z,20.77
2019-05-09T00:33:20.573Z,20.79
2019-05-09T00:34:30.675Z,20.79
2019-05-09T00:35:40.731Z,20.69
2019-05-09T00:36:51.388Z,20.85
2019-05-09T00:38:01.398Z,20.77
2019-05-09T00:39:13.165Z,20.77
2019-05-09T00:40:23.813Z,20.77
2019-05-09T00:41:35.252Z,20.82
2019-05-09T00:42:46.539Z,20.77
2019-05-09T00:43:58.643Z,20.77
2019-05-09T00:45:08.790Z,20.72
2019-05-09T00:46:20.346Z,20.77
2019-05-09T00:47:30.492Z,20.73
2019-05-09T00:48:39.664Z,20.74
2019-05-09T00:49:51.269Z,20.72
2019-05-09T00:51:03.405Z,20.76
2019-05-09T00:52:13.999Z,20.74
2019-05-09T00:53:25.712Z,20.84
2019-05-09T00:54:35.991Z,20.8
2019-05-09T00:55:47.937Z,20.74
2019-05-09T00:56:58.826Z,20.69
2019-05-09T00:58:09.985Z,20.67
2019-05-09T00:59:20.705Z,20.72
2019-05-09T01:00:33.313Z,20.77
2019-05-09T01:01:43.659Z,20.73
2019-05-09T01:02:54.156Z,20.82
2019-05-09T01:04:04.428Z,20.85
2019-05-09T01:05:15.460Z,20.74
2019-05-09T01:06:26.511Z,20.69
2019-05-09T01:07:36.149Z,20.84
2019-05-09T01:08:46.656Z,20.77
2019-05-09T01:09:58.685Z,20.76
2019-05-09T01:11:18.052Z,20.8
2019-05-09T01:12:29.299Z,20.85
2019-05-09T01:13:38.653Z,20.8
2019-05-09T01:14:48.511Z,20.77
2019-05-09T01:15:58.627Z,20.8
2019-05-09T01:17:09.866Z,20.76
2019-05-09T01:18:21.260Z,20.74
2019-05-09T01:19:30.884Z,20.79
2019-05-09T01:20:41.279Z,20.73
2019-05-09T01:21:50.941Z,20.7
2019-05-09T01:23:03.385Z,20.77
2019-05-09T01:24:13.856Z,20.66
2019-05-09T01:25:24.081Z,20.73
2019-05-09T01:26:35.603Z,20.74
2019-05-09T01:27:45.668Z,20.72
2019-05-09T01:28:56.390Z,20.64
2019-05-09T01:30:09.288Z,20.7
2019-05-09T01:31:20.619Z,20.7
2019-05-09T01:32:34.073Z,20.69
2019-05-09T01:33:46.092Z,20.7
2019-05-09T01:34:57.847Z,20.67
2019-05-09T01:36:09.117Z,20.8
2019-05-09T01:37:19.512Z,20.67
2019-05-09T01:38:31.113Z,20.7
2019-05-09T01:39:41.348Z,20.73
2019-05-09T01:40:53.079Z,20.67
2019-05-09T01:42:03.249Z,20.7
2019-05-09T01:43:13.903Z,20.66
2019-05-09T01:44:24.008Z,20.69
2019-05-09T01:45:34.189Z,20.64
2019-05-09T01:46:45.978Z,20.66
2019-05-09T01:47:56.284Z,20.67
2019-05-09T01:49:07.958Z,20.7
2019-05-09T01:50:19.086Z,20.67
2019-05-09T01:51:30.191Z,20.72
2019-05-09T01:52:41.113Z,20.66
2019-05-09T01:53:53.126Z,20.64
2019-05-09T01:55:03.671Z,20.66
2019-05-09T01:56:13.936Z,20.67
2019-05-09T01:57:25.705Z,20.67
2019-05-09T01:58:36.633Z,20.74
2019-05-09T01:59:49.250Z,20.7
2019-05-09T02:01:00.352Z,20.69
2019-05-09T02:02:14.156Z,20.64
2019-05-09T02:03:23.381Z,20.69
2019-05-09T02:04:33.389Z,20.66
2019-05-09T02:05:43.525Z,20.69
2019-05-09T02:06:53.800Z,20.74
2019-05-09T02:08:05.744Z,20.67
2019-05-09T02:09:16.518Z,20.66
2019-05-09T02:10:28.064Z,20.67
2019-05-09T02:11:48.151Z,20.67
2019-05-09T02:12:59.210Z,20.67
2019-05-09T02:14:10.502Z,20.67
2019-05-09T02:15:20.911Z,20.72
2019-05-09T02:16:31.016Z,20.69
2019-05-09T02:17:54.120Z,20.69
2019-05-09T02:19:13.352Z,20.7
2019-05-09T02:20:24.137Z,20.72
2019-05-09T02:21:34.468Z,20.67
2019-05-09T02:22:45.732Z,20.67
2019-05-09T02:23:56.190Z,20.69
2019-05-09T02:25:08.643Z,20.7
2019-05-09T02:26:18.464Z,20.67
2019-05-09T02:27:28.804Z,20.73
2019-05-09T02:28:40.248Z,20.67
2019-05-09T02:29:50.954Z,20.72
2019-05-09T02:31:04.642Z,20.67
2019-05-09T02:32:16.810Z,20.69
2019-05-09T02:33:29.966Z,20.67
2019-05-09T02:34:44.227Z,20.67
2019-05-09T02:36:04.306Z,20.7
2019-05-09T02:37:18.664Z,20.7
2019-05-09T02:38:31.157Z,20.69
2019-05-09T02:39:41.888Z,20.74
2019-05-09T02:40:54.369Z,20.69
2019-05-09T02:42:19.519Z,20.72
2019-05-09T02:43:31.606Z,20.76
2019-05-09T02:44:44.460Z,20.69
2019-05-09T02:45:59.357Z,20.72
2019-05-09T02:47:11.573Z,20.67
2019-05-09T02:48:23.546Z,20.69
2019-05-09T02:49:35.685Z,20.69
2019-05-09T02:50:48.481Z,20.72
2019-05-09T02:52:01.288Z,20.61
2019-05-09T02:53:14.044Z,20.7
2019-05-09T02:54:29.706Z,20.69
2019-05-09T02:55:42.940Z,20.7
2019-05-09T02:56:54.627Z,20.7
2019-05-09T02:58:08.002Z,20.72
2019-05-09T02:59:21.295Z,20.69
2019-05-09T03:00:34.099Z,20.72
2019-05-09T03:01:49.440Z,20.69
2019-05-09T03:03:02.105Z,20.67
2019-05-09T03:04:14.360Z,20.67
2019-05-09T03:05:29.579Z,20.69
2019-05-09T03:06:41.380Z,20.72
2019-05-09T03:07:54.137Z,20.73
2019-05-09T03:09:08.551Z,20.7
2019-05-09T03:10:21.679Z,20.7
2019-05-09T03:11:34.153Z,20.72
2019-05-09T03:12:49.648Z,20.74
2019-05-09T03:14:00.850Z,20.7
2019-05-09T03:15:13.986Z,20.72
2019-05-09T03:16:29.213Z,20.72
2019-05-09T03:17:41.139Z,20.73
2019-05-09T03:18:54.508Z,20.72
2019-05-09T03:20:05.716Z,20.69
2019-05-09T03:21:19.051Z,20.69
2019-05-09T03:22:31.305Z,20.64
2019-05-09T03:23:43.803Z,20.74
2019-05-09T03:24:58.562Z,20.69
2019-05-09T03:26:11.360Z,20.7
2019-05-09T03:27:24.275Z,20.69
2019-05-09T03:28:38.514Z,20.7
2019-05-09T03:29:51.406Z,20.64
2019-05-09T03:31:04.428Z,20.66
2019-05-09T03:32:19.363Z,20.69
2019-05-09T03:33:35.625Z,20.7
2019-05-09T03:34:50.219Z,20.72
2019-05-09T03:35:59.863Z,20.7
2019-05-09T03:37:10.937Z,20.74
2019-05-09T03:38:22.581Z,20.69
2019-05-09T03:39:33.170Z,20.67
2019-05-09T03:40:47.136Z,20.69
2019-05-09T03:41:57.487Z,20.7
2019-05-09T03:43:07.910Z,20.7
2019-05-09T03:44:17.827Z,20.72
2019-05-09T03:45:29.717Z,20.61
2019-05-09T03:46:40.868Z,20.62
2019-05-09T03:47:52.537Z,20.67
2019-05-09T03:49:03.295Z,20.66
2019-05-09T03:50:17.367Z,20.66
2019-05-09T03:51:27.450Z,20.7
2019-05-09T03:52:39.690Z,20.62
2019-05-09T03:53:50.856Z,20.64
2019-05-09T03:55:02.540Z,20.58
2019-05-09T03:56:14.921Z,20.61
2019-05-09T03:57:25.276Z,20.66
2019-05-09T03:58:35.734Z,20.73
2019-05-09T03:59:47.899Z,20.67
2019-05-09T04:00:57.967Z,20.62
2019-05-09T04:02:12.428Z,20.64
2019-05-09T04:03:24.913Z,20.61
2019-05-09T04:04:34.637Z,20.66
2019-05-09T04:06:05.201Z,20.61
2019-05-09T04:07:15.176Z,20.61
2019-05-09T04:08:28.043Z,20.64
2019-05-09T04:09:41.944Z,20.7
2019-05-09T04:10:54.907Z,20.64
2019-05-09T04:12:07.490Z,20.62
2019-05-09T04:13:17.960Z,20.7
2019-05-09T04:14:28.162Z,20.62
2019-05-09T04:15:40.329Z,20.7
2019-05-09T04:16:50.682Z,20.61
2019-05-09T04:18:02.551Z,20.67
2019-05-09T04:19:13.464Z,20.61
2019-05-09T04:20:24.991Z,20.62
2019-05-09T04:21:34.635Z,20.64
2019-05-09T04:22:45.703Z,20.61
2019-05-09T04:23:58.188Z,20.66
2019-05-09T04:25:08.076Z,20.64
2019-05-09T04:26:20.036Z,20.62
2019-05-09T04:27:32.164Z,20.64
2019-05-09T04:28:44.720Z,20.64
2019-05-09T04:29:54.142Z,20.62
2019-05-09T04:31:04.589Z,20.64
2019-05-09T04:32:14.773Z,20.62
2019-05-09T04:33:27.711Z,20.64
2019-05-09T04:34:38.010Z,20.64
2019-05-09T04:35:49.960Z,20.64
2019-05-09T04:37:00.080Z,20.64
2019-05-09T04:38:09.869Z,20.54
2019-05-09T04:39:28.202Z,20.62
2019-05-09T04:40:48.922Z,20.62
2019-05-09T04:42:08.271Z,20.62
2019-05-09T04:43:39.442Z,20.52
2019-05-09T04:45:03.301Z,20.66
2019-05-09T04:46:27.685Z,20.57
2019-05-09T04:47:47.147Z,20.64
2019-05-09T04:49:03.444Z,20.64
2019-05-09T04:50:23.136Z,20.66
2019-05-09T04:51:38.950Z,20.64
2019-05-09T04:52:49.938Z,20.57
2019-05-09T04:54:00.872Z,20.55
2019-05-09T04:55:12.729Z,20.66
2019-05-09T04:56:23.232Z,20.66
2019-05-09T04:57:35.236Z,20.62
2019-05-09T04:58:47.945Z,20.61
2019-05-09T04:59:59.675Z,20.62
2019-05-09T05:01:09.778Z,20.66
2019-05-09T05:02:20.712Z,20.64
2019-05-09T05:03:32.746Z,20.57
2019-05-09T05:04:42.165Z,20.61
2019-05-09T05:05:52.850Z,20.57
2019-05-09T05:07:03.110Z,20.61
2019-05-09T05:08:14.654Z,20.62
2019-05-09T05:09:27.712Z,20.66
2019-05-09T05:10:39.723Z,20.61
2019-05-09T05:11:51.872Z,20.57
2019-05-09T05:13:03.318Z,20.66
2019-05-09T05:14:32.884Z,20.59
2019-05-09T05:15:43.539Z,20.59
2019-05-09T05:17:11.290Z,20.58
2019-05-09T05:18:24.864Z,20.61
2019-05-09T05:19:39.934Z,20.59
2019-05-09T05:20:50.625Z,20.58
2019-05-09T05:22:02.691Z,20.57
2019-05-09T05:23:14.472Z,20.61
2019-05-09T05:24:27.692Z,20.64
2019-05-09T05:25:38.228Z,20.55
2019-05-09T05:26:48.433Z,20.62
2019-05-09T05:28:00.552Z,20.61
2019-05-09T05:29:10.875Z,20.64
2019-05-09T05:30:20.503Z,20.57
2019-05-09T05:31:31.043Z,20.64
2019-05-09T05:32:41.102Z,20.62
2019-05-09T05:33:57.734Z,20.54
2019-05-09T05:35:22.612Z,20.64
2019-05-09T05:36:33.701Z,20.62
2019-05-09T05:37:43.736Z,20.57
2019-05-09T05:38:54.843Z,20.62
2019-05-09T05:40:07.753Z,20.55
2019-05-09T05:41:18.256Z,20.59
2019-05-09T05:42:30.576Z,20.59
2019-05-09T05:43:50.312Z,20.57
2019-05-09T05:45:00.735Z,20.59
2019-05-09T05:46:12.773Z,20.55
2019-05-09T05:47:26.133Z,20.57
2019-05-09T05:48:38.304Z,20.61
2019-05-09T05:49:48.740Z,20.59
2019-05-09T05:51:00.018Z,20.62
2019-05-09T05:52:10.346Z,20.59
2019-05-09T05:53:20.751Z,20.59
2019-05-09T05:54:32.920Z,20.62
2019-05-09T05:55:44.866Z,20.61
2019-05-09T05:57:00.083Z,20.64
2019-05-09T05:58:11.089Z,20.66
2019-05-09T05:59:22.979Z,20.61
2019-05-09T06:00:33.678Z,20.59
2019-05-09T06:01:47.444Z,20.61
2019-05-09T06:02:58.510Z,20.64
2019-05-09T06:04:09.829Z,20.59
2019-05-09T06:05:21.168Z,20.58
2019-05-09T06:06:37.455Z,20.57
2019-05-09T06:07:48.302Z,20.66
2019-05-09T06:09:00.223Z,20.61
2019-05-09T06:10:10.776Z,20.64
2019-05-09T06:11:22.699Z,20.66
2019-05-09T06:12:33.154Z,20.59
2019-05-09T06:14:11.522Z,20.62
2019-05-09T06:15:23.604Z,20.59
2019-05-09T06:16:37.705Z,20.66
2019-05-09T06:17:48.369Z,20.59
2019-05-09T06:19:00.920Z,20.67
2019-05-09T06:20:13.346Z,20.57
2019-05-09T06:21:24.887Z,20.62
2019-05-09T06:22:37.978Z,20.58
2019-05-09T06:23:50.588Z,20.69
2019-05-09T06:25:00.740Z,20.52
2019-05-09T06:26:15.033Z,20.59
2019-05-09T06:27:27.473Z,20.64
2019-05-09T06:28:37.614Z,20.62
2019-05-09T06:29:47.746Z,20.64
2019-05-09T06:30:58.442Z,20.67
2019-05-09T06:32:10.215Z,20.58
2019-05-09T06:33:20.544Z,20.69
2019-05-09T06:34:32.382Z,20.62
2019-05-09T06:35:48.077Z,20.58
2019-05-09T06:37:03.161Z,20.61
2019-05-09T06:38:18.670Z,20.61
2019-05-09T06:39:30.997Z,20.67
2019-05-09T06:40:42.752Z,20.67
2019-05-09T06:41:57.240Z,20.69
2019-05-09T06:43:08.011Z,20.69
2019-05-09T06:44:24.428Z,20.72
2019-05-09T06:45:38.837Z,20.66
2019-05-09T06:46:52.842Z,20.67
2019-05-09T06:48:07.410Z,20.67
2019-05-09T06:49:34.423Z,20.66
2019-05-09T06:50:44.771Z,20.62
2019-05-09T06:51:57.818Z,20.66
2019-05-09T06:53:09.600Z,20.69
2019-05-09T06:54:19.925Z,20.73
2019-05-09T06:55:31.826Z,20.7
2019-05-09T06:56:43.196Z,20.7
2019-05-09T06:57:54.889Z,20.72
2019-05-09T06:59:07.594Z,20.72
2019-05-09T07:00:17.779Z,20.59
2019-05-09T07:01:28.499Z,20.59
2019-05-09T07:02:38.844Z,20.64
2019-05-09T07:03:50.539Z,20.69
2019-05-09T07:05:03.106Z,20.7
2019-05-09T07:06:14.706Z,20.69
2019-05-09T07:07:25.183Z,20.67
2019-05-09T07:08:38.008Z,20.67
2019-05-09T07:09:50.371Z,20.64
2019-05-09T07:11:00.654Z,20.7
2019-05-09T07:12:12.929Z,20.59
2019-05-09T07:13:23.159Z,20.69
2019-05-09T07:14:43.727Z,20.69
2019-05-09T07:15:58.199Z,20.73
2019-05-09T07:17:10.607Z,20.69
2019-05-09T07:18:20.846Z,20.74
2019-05-09T07:19:32.537Z,20.66
2019-05-09T07:20:43.445Z,20.67
2019-05-09T07:21:57.714Z,20.67
2019-05-09T07:23:08.977Z,20.69
2019-05-09T07:24:20.968Z,20.69
2019-05-09T07:25:32.334Z,20.7
2019-05-09T07:26:42.810Z,20.72
2019-05-09T07:27:53.084Z,20.73
2019-05-09T07:29:04.179Z,20.64
2019-05-09T07:30:14.869Z,20.69
2019-05-09T07:31:25.272Z,20.64
2019-05-09T07:32:38.024Z,20.69
2019-05-09T07:33:50.197Z,20.67
2019-05-09T07:35:00.141Z,20.69
2019-05-09T07:36:11.034Z,20.73
2019-05-09T07:37:21.062Z,20.74
2019-05-09T07:38:32.526Z,20.79
2019-05-09T07:39:43.003Z,20.76
2019-05-09T07:40:53.452Z,20.8
2019-05-09T07:42:07.394Z,20.77
2019-05-09T07:43:17.969Z,20.79
2019-05-09T07:44:33.021Z,20.79
2019-05-09T07:45:58.061Z,20.76
2019-05-09T07:47:09.898Z,20.76
2019-05-09T07:48:20.571Z,20.8
2019-05-09T07:49:30.815Z,20.77
2019-05-09T07:50:43.832Z,20.8
2019-05-09T07:51:55.408Z,20.84
2019-05-09T07:53:13.662Z,20.88
2019-05-09T07:54:31.797Z,20.82
2019-05-09T07:55:42.602Z,20.84
2019-05-09T07:56:54.697Z,20.88
2019-05-09T07:58:07.949Z,20.84
2019-05-09T07:59:20.602Z,20.85
2019-05-09T08:00:32.545Z,20.91
2019-05-09T08:01:43.601Z,20.88
2019-05-09T08:02:54.110Z,20.8
2019-05-09T08:04:07.494Z,20.8
2019-05-09T08:05:17.452Z,20.82
2019-05-09T08:06:28.632Z,20.89
2019-05-09T08:07:40.456Z,20.82
2019-05-09T08:08:52.237Z,20.91
2019-05-09T08:10:03.191Z,20.94
2019-05-09T08:11:17.957Z,20.85
2019-05-09T08:12:28.338Z,20.87
2019-05-09T08:13:39.120Z,20.88
2019-05-09T08:15:16.326Z,20.82
2019-05-09T08:16:30.337Z,20.82
2019-05-09T08:17:40.695Z,20.8
2019-05-09T08:18:50.866Z,20.8
2019-05-09T08:20:02.998Z,20.77
2019-05-09T08:21:12.941Z,20.8
2019-05-09T08:22:34.685Z,20.77
2019-05-09T08:24:02.664Z,20.79
2019-05-09T08:25:13.212Z,20.8
2019-05-09T08:26:29.495Z,20.79
2019-05-09T08:27:42.322Z,20.79
2019-05-09T08:28:53.632Z,20.79
2019-05-09T08:30:07.853Z,20.77
2019-05-09T08:31:20.240Z,20.82
2019-05-09T08:32:31.072Z,20.79
2019-05-09T08:33:43.008Z,20.84
2019-05-09T08:34:53.327Z,20.77
2019-05-09T08:36:08.200Z,20.77
2019-05-09T08:37:20.025Z,20.79
2019-05-09T08:38:30.783Z,20.74
2019-05-09T08:39:43.079Z,20.77
2019-05-09T08:40:53.233Z,20.8
2019-05-09T08:42:04.287Z,20.8
2019-05-09T08:43:17.868Z,20.82
2019-05-09T08:44:33.238Z,20.85
2019-05-09T08:45:48.406Z,20.82
2019-05-09T08:46:59.885Z,20.73
2019-05-09T08:48:11.765Z,20.85
2019-05-09T08:49:23.535Z,20.87
2019-05-09T08:50:33.425Z,20.76
2019-05-09T08:52:16.019Z,20.73
2019-05-09T08:53:27.657Z,20.82
2019-05-09T08:54:37.991Z,20.85
2019-05-09T08:55:49.869Z,20.82
2019-05-09T08:57:00.587Z,20.85
2019-05-09T08:58:13.094Z,20.85
2019-05-09T08:59:27.429Z,20.88
2019-05-09T09:00:38.988Z,20.85
2019-05-09T09:02:22.278Z,20.92
2019-05-09T09:03:33.187Z,20.84
2019-05-09T09:04:44.861Z,20.82
2019-05-09T09:05:57.686Z,20.84
2019-05-09T09:07:08.465Z,20.94
2019-05-09T09:08:20.680Z,20.92
2019-05-09T09:09:33.109Z,20.99
2019-05-09T09:10:44.655Z,20.95
2019-05-09T09:11:58.041Z,21.06
2019-05-09T09:13:08.983Z,21.16
2019-05-09T09:14:20.896Z,21.13
2019-05-09T09:16:18.275Z,21.28
2019-05-09T09:17:30.459Z,21.31
2019-05-09T09:18:41.281Z,21.38
2019-05-09T09:19:53.118Z,21.37
2019-05-09T09:21:05.158Z,21.34
2019-05-09T09:22:17.705Z,21.47
2019-05-09T09:23:47.871Z,21.53
2019-05-09T09:25:01.126Z,21.61
2019-05-09T09:26:12.846Z,21.67
2019-05-09T09:27:23.178Z,21.67
2019-05-09T09:28:34.393Z,21.68
2019-05-09T09:29:44.632Z,21.71
2019-05-09T09:30:55.726Z,21.79
2019-05-09T09:32:08.244Z,21.79
2019-05-09T09:33:20.103Z,21.84
2019-05-09T09:34:32.588Z,21.99
2019-05-09T09:35:45.045Z,21.98
2019-05-09T09:37:02.858Z,21.99
2019-05-09T09:38:20.175Z,22.02
2019-05-09T09:39:33.897Z,21.98
2019-05-09T09:40:53.676Z,22.02
2019-05-09T09:42:05.186Z,22.17
2019-05-09T09:43:17.590Z,22.12
2019-05-09T09:44:28.621Z,22.07
2019-05-09T09:45:40.385Z,22.22
2019-05-09T09:46:50.281Z,22.27
2019-05-09T09:48:01.462Z,22.2
2019-05-09T09:49:14.108Z,22.2
2019-05-09T09:50:27.429Z,22.27
2019-05-09T09:51:38.179Z,22.33
2019-05-09T09:52:51.496Z,22.28
2019-05-09T09:54:03.701Z,22.39
2019-05-09T09:55:18.175Z,22.36
2019-05-09T09:56:28.143Z,22.36
2019-05-09T09:57:40.223Z,22.45
2019-05-09T09:58:50.934Z,22.37
2019-05-09T10:00:03.372Z,22.47
2019-05-09T10:01:15.026Z,22.46
2019-05-09T10:02:27.766Z,22.61
2019-05-09T10:03:37.403Z,22.49
2019-05-09T10:04:46.839Z,22.58
2019-05-09T10:05:57.712Z,22.6
2019-05-09T10:07:08.829Z,22.57
2019-05-09T10:08:20.675Z,22.64
2019-05-09T10:09:29.919Z,22.58
2019-05-09T10:10:39.454Z,22.61
2019-05-09T10:11:50.831Z,22.6
2019-05-09T10:13:13.020Z,22.62
2019-05-09T10:14:23.367Z,22.61
2019-05-09T10:15:38.201Z,22.57
2019-05-09T10:16:50.191Z,22.55
2019-05-09T10:18:00.728Z,22.7
2019-05-09T10:19:13.233Z,22.64
2019-05-09T10:20:23.338Z,22.65
2019-05-09T10:21:33.955Z,22.58
2019-05-09T10:23:11.658Z,22.65
2019-05-09T10:24:30.547Z,22.67
2019-05-09T10:25:43.068Z,22.62
2019-05-09T10:26:52.801Z,22.65
2019-05-09T10:28:02.287Z,22.72
2019-05-09T10:29:13.704Z,22.7
2019-05-09T10:30:24.865Z,22.72
2019-05-09T10:31:35.862Z,22.73
2019-05-09T10:32:47.607Z,22.79
2019-05-09T10:33:57.965Z,22.75
2019-05-09T10:35:08.714Z,22.79
2019-05-09T10:36:18.059Z,22.8
2019-05-09T10:37:27.827Z,22.83
2019-05-09T10:38:38.535Z,22.86
2019-05-09T10:39:48.951Z,22.85
2019-05-09T10:41:03.381Z,22.9
2019-05-09T10:42:18.509Z,22.9
2019-05-09T10:43:41.489Z,22.82
2019-05-09T10:44:53.497Z,22.92
2019-05-09T10:46:03.296Z,22.91
2019-05-09T10:47:15.504Z,22.97
2019-05-09T10:48:30.745Z,22.88
2019-05-09T10:49:42.666Z,22.94
2019-05-09T10:51:10.401Z,22.92
2019-05-09T10:52:22.937Z,22.9
2019-05-09T10:53:33.169Z,22.9
2019-05-09T10:54:42.903Z,22.9
2019-05-09T10:55:52.730Z,22.95
2019-05-09T10:57:02.695Z,22.9
2019-05-09T10:58:13.109Z,22.92
2019-05-09T10:59:26.209Z,22.88
2019-05-09T11:00:39.164Z,22.9
2019-05-09T11:01:52.103Z,22.85
2019-05-09T11:03:03.378Z,22.88
2019-05-09T11:04:13.876Z,22.9
2019-05-09T11:05:27.511Z,22.88
2019-05-09T11:06:38.176Z,22.95
2019-05-09T11:07:49.486Z,22.88
2019-05-09T11:09:00.663Z,22.94
2019-05-09T11:10:34.295Z,22.92
2019-05-09T11:11:48.345Z,22.9
2019-05-09T11:12:58.418Z,22.97
2019-05-09T11:14:10.668Z,22.92
2019-05-09T11:15:42.734Z,22.91
2019-05-09T11:17:20.958Z,22.94
2019-05-09T11:18:33.511Z,22.92
2019-05-09T11:19:42.963Z,22.94
2019-05-09T11:20:53.639Z,22.91
2019-05-09T11:22:07.702Z,22.95
2019-05-09T11:23:19.316Z,22.95
2019-05-09T11:24:52.707Z,22.9
2019-05-09T11:26:03.003Z,22.94
2019-05-09T11:27:13.094Z,22.98
2019-05-09T11:28:23.400Z,22.94
2019-05-09T11:29:36.047Z,22.97
2019-05-09T11:30:47.607Z,22.97
2019-05-09T11:31:58.644Z,22.98
2019-05-09T11:33:10.268Z,22.97
2019-05-09T11:34:21.076Z,22.97
2019-05-09T11:35:30.800Z,23.01
2019-05-09T11:36:42.649Z,22.98
2019-05-09T11:37:54.510Z,23.04
2019-05-09T11:39:10.195Z,23.04
2019-05-09T11:40:19.950Z,23
2019-05-09T11:41:32.093Z,23.09
2019-05-09T11:42:43.436Z,23.05
2019-05-09T11:43:55.516Z,23.05
2019-05-09T11:45:07.622Z,23.01
2019-05-09T11:46:17.945Z,23.07
2019-05-09T11:47:48.562Z,23.05
2019-05-09T11:48:58.450Z,23.05
2019-05-09T11:50:11.309Z,23.05
2019-05-09T11:51:28.949Z,23.04
2019-05-09T11:52:40.742Z,23.05
2019-05-09T11:53:53.342Z,23.01
2019-05-09T11:55:07.620Z,23.04
2019-05-09T11:56:43.080Z,23.05
2019-05-09T11:57:55.211Z,23.04
2019-05-09T11:59:07.812Z,23.05
2019-05-09T12:00:17.918Z,23.05
2019-05-09T12:01:29.171Z,23.02
2019-05-09T12:02:41.037Z,23.05
2019-05-09T12:03:57.725Z,23.1
2019-05-09T12:05:08.699Z,23.09
2019-05-09T12:06:22.709Z,23.01
2019-05-09T12:07:33.842Z,23.07
2019-05-09T12:08:44.893Z,23.09
2019-05-09T12:09:55.739Z,23.04
2019-05-09T12:11:08.324Z,23.12
2019-05-09T12:12:19.453Z,23.07
2019-05-09T12:13:29.548Z,23.07
2019-05-09T12:14:40.411Z,23.07
2019-05-09T12:15:53.732Z,23.09
2019-05-09T12:17:08.158Z,23.05
2019-05-09T12:18:17.763Z,23.12
2019-05-09T12:19:29.477Z,23.09
2019-05-09T12:20:39.936Z,23.02
2019-05-09T12:21:52.886Z,23.09
2019-05-09T12:23:03.120Z,23.09
2019-05-09T12:24:15.219Z,23.13
2019-05-09T12:25:28.240Z,23.01
2019-05-09T12:26:41.503Z,23.04
2019-05-09T12:27:53.786Z,23.04
2019-05-09T12:29:08.455Z,23.02
2019-05-09T12:30:18.836Z,23
2019-05-09T12:31:31.134Z,22.98
2019-05-09T12:32:43.505Z,22.98
2019-05-09T12:33:52.994Z,22.97
2019-05-09T12:35:04.944Z,22.97
2019-05-09T12:36:18.354Z,22.97
2019-05-09T12:37:30.425Z,22.94
2019-05-09T12:38:45.733Z,22.91
2019-05-09T12:40:01.043Z,22.86
2019-05-09T12:41:12.442Z,22.86
2019-05-09T12:42:24.169Z,22.9
2019-05-09T12:43:38.161Z,22.82
2019-05-09T12:44:49.489Z,22.86
2019-05-09T12:46:01.763Z,22.8
2019-05-09T12:47:13.394Z,22.76
2019-05-09T12:48:24.275Z,22.83
2019-05-09T12:49:35.365Z,22.79
2019-05-09T12:50:48.665Z,22.83
2019-05-09T12:52:00.538Z,22.8
2019-05-09T12:53:09.774Z,22.72
2019-05-09T12:54:21.548Z,22.82
2019-05-09T12:55:32.953Z,22.8
2019-05-09T12:56:43.737Z,22.8
2019-05-09T12:57:55.387Z,22.85
2019-05-09T12:59:08.695Z,22.95
2019-05-09T13:00:18.608Z,22.9
2019-05-09T13:01:28.790Z,22.88
2019-05-09T13:02:38.824Z,22.95
2019-05-09T13:03:50.680Z,22.85
2019-05-09T13:04:59.893Z,23
2019-05-09T13:06:10.671Z,23.01
2019-05-09T13:07:25.068Z,23.05
2019-05-09T13:08:38.467Z,23.05
2019-05-09T13:09:54.956Z,23.04
2019-05-09T13:11:07.981Z,23.04
2019-05-09T13:12:20.574Z,23.05
2019-05-09T13:13:39.926Z,23.01
2019-05-09T13:14:53.484Z,23.04
2019-05-09T13:16:05.582Z,23.04
2019-05-09T13:17:22.535Z,23.01
2019-05-09T13:18:34.565Z,23.05
2019-05-09T13:19:44.696Z,23.04
2019-05-09T13:20:55.159Z,23.02
2019-05-09T13:22:08.072Z,23.05
2019-05-09T13:23:20.249Z,23.01
2019-05-09T13:24:30.797Z,23.02
2019-05-09T13:25:42.914Z,23.01
2019-05-09T13:26:55.448Z,23.05
2019-05-09T13:28:05.198Z,23.05
2019-05-09T13:29:15.743Z,23.07
2019-05-09T13:30:28.261Z,23.05
2019-05-09T13:31:41.852Z,23.09
2019-05-09T13:32:53.283Z,23.09
2019-05-09T13:34:03.188Z,23.01
2019-05-09T13:35:15.450Z,23.02
2019-05-09T13:36:28.338Z,23.02
2019-05-09T13:37:40.484Z,22.91
2019-05-09T13:39:08.573Z,23
2019-05-09T13:40:21.484Z,22.92
2019-05-09T13:41:34.080Z,22.94
2019-05-09T13:42:45.044Z,22.95
2019-05-09T13:44:13.166Z,22.94
2019-05-09T13:45:28.439Z,22.91
2019-05-09T13:46:41.153Z,22.92
2019-05-09T13:47:54.530Z,22.91
2019-05-09T13:49:19.311Z,22.9
2019-05-09T13:50:30.734Z,22.85
2019-05-09T13:52:04.797Z,22.86
2019-05-09T13:53:19.211Z,22.8
2019-05-09T13:54:30.996Z,22.82
2019-05-09T13:55:43.105Z,22.79
2019-05-09T13:57:03.939Z,22.79
2019-05-09T13:58:19.235Z,22.72
2019-05-09T13:59:32.546Z,22.79
2019-05-09T14:01:07.548Z,22.76
2019-05-09T14:02:18.712Z,22.79
2019-05-09T14:03:30.549Z,22.79
2019-05-09T14:04:41.925Z,22.75
2019-05-09T14:05:53.705Z,22.73
2019-05-09T14:07:08.262Z,22.7
2019-05-09T14:08:20.727Z,22.75
2019-05-09T14:09:33.499Z,22.67
2019-05-09T14:10:48.133Z,22.6
2019-05-09T14:12:01.288Z,22.67
2019-05-09T14:13:23.442Z,22.64
2019-05-09T14:14:37.928Z,22.6
2019-05-09T14:15:51.255Z,22.64
2019-05-09T14:17:04.149Z,22.64
2019-05-09T14:18:21.607Z,22.68
2019-05-09T14:19:52.148Z,22.67
2019-05-09T14:21:02.072Z,22.7
2019-05-09T14:22:12.947Z,22.67
2019-05-09T14:23:34.698Z,22.58
2019-05-09T14:25:19.091Z,22.58
2019-05-09T14:26:30.254Z,22.61
2019-05-09T14:27:42.376Z,22.6
2019-05-09T14:29:00.470Z,22.64
2019-05-09T14:30:12.611Z,22.6
2019-05-09T14:31:28.783Z,22.54
2019-05-09T14:32:44.664Z,22.54
2019-05-09T14:33:57.060Z,22.58
2019-05-09T14:35:08.481Z,22.52
2019-05-09T14:36:17.823Z,22.61
2019-05-09T14:37:28.355Z,22.51
2019-05-09T14:38:39.196Z,22.57
2019-05-09T14:40:09.994Z,22.55
2019-05-09T14:41:21.432Z,22.62
2019-05-09T14:42:33.903Z,22.51
2019-05-09T14:43:48.070Z,22.57
2019-05-09T14:44:58.474Z,22.57
2019-05-09T14:46:10.669Z,22.54
2019-05-09T14:47:22.399Z,22.46
2019-05-09T14:48:33.068Z,22.4
2019-05-09T14:49:52.462Z,22.45
2019-05-09T14:51:04.243Z,22.39
2019-05-09T14:52:14.638Z,22.46
2019-05-09T14:53:24.067Z,22.43
2019-05-09T14:54:35.705Z,22.4
2019-05-09T14:55:50.023Z,22.43
2019-05-09T14:57:00.825Z,22.45
2019-05-09T14:58:12.400Z,22.39
2019-05-09T14:59:23.825Z,22.4
2019-05-09T15:00:35.374Z,22.42
2019-05-09T15:01:51.887Z,22.39
2019-05-09T15:03:04.450Z,22.39
2019-05-09T15:04:15.632Z,22.37
2019-05-09T15:05:27.846Z,22.36
2019-05-09T15:06:37.674Z,22.36
2019-05-09T15:07:47.600Z,22.37
2019-05-09T15:09:04.989Z,22.35
2019-05-09T15:10:15.219Z,22.33
2019-05-09T15:11:28.116Z,22.36
2019-05-09T15:12:38.972Z,22.3
2019-05-09T15:13:50.162Z,22.31
2019-05-09T15:14:59.999Z,22.33
2019-05-09T15:16:11.324Z,22.33
2019-05-09T15:17:23.267Z,22.31
2019-05-09T15:18:35.031Z,22.36
2019-05-09T15:20:03.208Z,22.28
2019-05-09T15:21:14.155Z,22.27
2019-05-09T15:22:28.349Z,22.25
2019-05-09T15:23:39.181Z,22.27
2019-05-09T15:24:50.228Z,22.3
2019-05-09T15:26:00.627Z,22.28
2019-05-09T15:27:10.068Z,22.28
2019-05-09T15:28:19.848Z,22.33
2019-05-09T15:29:31.593Z,22.27
2019-05-09T15:30:43.986Z,22.28
2019-05-09T15:32:11.977Z,22.25
2019-05-09T15:33:23.293Z,22.27
2019-05-09T15:34:34.902Z,22.28
2019-05-09T15:35:45.105Z,22.28
2019-05-09T15:36:58.140Z,22.28
2019-05-09T15:38:11.022Z,22.24
2019-05-09T15:39:23.353Z,22.21
2019-05-09T15:40:34.672Z,22.28
2019-05-09T15:41:47.639Z,22.25
2019-05-09T15:42:58.743Z,22.22
2019-05-09T15:44:10.851Z,22.27